createdAt,value
2018-07-22T00:01:53.926Z,19.90
2018-07-22T00:04:22.508Z,19.90
2018-07-22T00:06:51.157Z,19.90
2018-07-22T00:09:19.700Z,19.70
2018-07-22T00:11:48.267Z,19.70
2018-07-22T00:14:16.905Z,19.70
2018-07-22T00:16:45.586Z,19.70
2018-07-22T00:19:14.276Z,19.60
2018-07-22T00:21:42.931Z,19.60
2018-07-22T00:24:11.526Z,19.60
2018-07-22T00:29:08.409Z,19.50
2018-07-22T00:31:37.093Z,19.50
2018-07-22T00:34:05.868Z,19.50
2018-07-22T00:36:34.527Z,19.50
2018-07-22T00:41:31.514Z,19.50
2018-07-22T00:44:00.170Z,19.40
2018-07-22T00:46:28.632Z,19.40
2018-07-22T00:48:57.300Z,19.30
2018-07-22T00:51:25.937Z,19.30
2018-07-22T00:53:54.612Z,19.30
2018-07-22T00:56:23.267Z,19.20
2018-07-22T00:58:51.964Z,19.20
2018-07-22T01:01:20.659Z,19.10
2018-07-22T01:03:49.675Z,19.00
2018-07-22T01:06:18.267Z,19.00
2018-07-22T01:08:46.928Z,18.90
2018-07-22T01:11:15.460Z,18.80
2018-07-22T01:13:44.036Z,18.80
2018-07-22T01:16:12.731Z,18.80
2018-07-22T01:18:41.330Z,18.70
2018-07-22T01:21:09.890Z,18.70
2018-07-22T01:23:38.497Z,18.70
2018-07-22T01:26:07.087Z,18.60
2018-07-22T01:28:35.609Z,18.50
2018-07-22T01:31:04.142Z,18.50
2018-07-22T01:33:32.628Z,18.50
2018-07-22T01:38:29.447Z,18.40
2018-07-22T01:40:58.008Z,18.30
2018-07-22T01:43:26.520Z,18.30
2018-07-22T01:45:55.157Z,18.30
2018-07-22T01:48:23.602Z,18.20
2018-07-22T01:53:20.284Z,18.10
2018-07-22T01:55:48.839Z,18.20
2018-07-22T01:58:17.405Z,18.10
2018-07-22T02:00:45.950Z,18.10
2018-07-22T02:03:14.426Z,18.00
2018-07-22T02:05:42.832Z,17.90
2018-07-22T02:08:11.317Z,17.90
2018-07-22T02:10:39.815Z,17.90
2018-07-22T02:13:08.252Z,17.90
2018-07-22T02:15:36.743Z,17.80
2018-07-22T02:18:05.398Z,17.70
2018-07-22T02:20:33.954Z,17.70
2018-07-22T02:23:02.414Z,17.60
2018-07-22T02:25:30.993Z,17.60
2018-07-22T02:27:59.440Z,17.50
2018-07-22T02:30:27.937Z,17.50
2018-07-22T02:32:56.496Z,17.50
2018-07-22T02:35:24.934Z,17.40
2018-07-22T02:37:53.424Z,17.40
2018-07-22T02:40:21.849Z,17.40
2018-07-22T02:42:50.335Z,17.30
2018-07-22T02:45:18.828Z,17.30
2018-07-22T02:47:47.290Z,17.30
2018-07-22T02:50:15.745Z,17.30
2018-07-22T02:52:44.216Z,17.20
2018-07-22T02:55:12.684Z,17.20
2018-07-22T02:57:41.089Z,17.20
2018-07-22T03:00:09.593Z,17.10
2018-07-22T03:02:38.085Z,17.00
2018-07-22T03:05:06.594Z,17.00
2018-07-22T03:07:35.036Z,16.90
2018-07-22T03:10:03.532Z,16.90
2018-07-22T03:12:32.071Z,16.90
2018-07-22T03:15:00.578Z,16.80
2018-07-22T03:17:29.038Z,16.80
2018-07-22T03:19:57.863Z,16.80
2018-07-22T03:22:26.446Z,16.70
2018-07-22T03:24:54.847Z,16.70
2018-07-22T03:27:23.219Z,16.60
2018-07-22T03:29:51.612Z,16.60
2018-07-22T03:32:20.125Z,16.60
2018-07-22T03:34:48.595Z,16.60
2018-07-22T03:37:17.154Z,16.60
2018-07-22T03:39:45.757Z,16.60
2018-07-22T03:42:14.229Z,16.60
2018-07-22T03:44:42.690Z,16.60
2018-07-22T03:47:11.633Z,16.60
2018-07-22T03:49:40.252Z,16.60
2018-07-22T03:52:08.867Z,16.60
2018-07-22T03:54:37.501Z,16.60
2018-07-22T03:57:06.117Z,16.60
2018-07-22T04:02:03.067Z,16.60
2018-07-22T04:04:31.679Z,16.60
2018-07-22T04:07:00.357Z,16.70
2018-07-22T04:09:28.861Z,16.70
2018-07-22T04:11:57.464Z,16.60
2018-07-22T04:14:25.903Z,16.60
2018-07-22T04:16:54.340Z,16.50
2018-07-22T04:19:22.894Z,16.60
2018-07-22T04:21:51.380Z,16.60
2018-07-22T04:24:19.833Z,16.70
2018-07-22T04:26:48.361Z,17.10
2018-07-22T04:29:16.924Z,16.90
2018-07-22T04:31:45.471Z,17.00
2018-07-22T04:34:13.905Z,17.30
2018-07-22T04:36:42.339Z,17.30
2018-07-22T04:39:11.197Z,17.30
2018-07-22T04:41:40.054Z,17.30
2018-07-22T04:44:08.603Z,17.40
2018-07-22T04:46:37.283Z,17.40
2018-07-22T04:49:05.898Z,17.50
2018-07-22T04:51:34.545Z,17.60
2018-07-22T04:54:03.189Z,17.80
2018-07-22T04:56:31.827Z,18.00
2018-07-22T04:59:00.455Z,18.20
2018-07-22T05:01:29.095Z,18.30
2018-07-22T05:03:57.693Z,18.20
2018-07-22T05:06:26.195Z,18.40
2018-07-22T05:08:54.770Z,18.60
2018-07-22T05:11:23.413Z,18.60
2018-07-22T05:13:52.191Z,18.70
2018-07-22T05:16:20.847Z,19.00
2018-07-22T05:18:49.319Z,19.10
2018-07-22T05:21:17.972Z,19.40
2018-07-22T05:23:46.585Z,20.80
2018-07-22T05:26:15.182Z,22.30
2018-07-22T05:28:43.774Z,23.40
2018-07-22T05:31:12.638Z,24.50
2018-07-22T05:33:41.454Z,25.50
2018-07-22T05:36:10.200Z,25.90
2018-07-22T05:38:38.844Z,26.50
2018-07-22T05:41:07.587Z,27.30
2018-07-22T05:43:36.235Z,26.80
2018-07-22T05:46:05.166Z,26.70
2018-07-22T05:48:34.046Z,27.70
2018-07-22T05:51:02.969Z,28.30
2018-07-22T05:53:31.544Z,29.00
2018-07-22T05:56:01.193Z,29.30
2018-07-22T05:58:29.866Z,28.80
2018-07-22T06:00:59.901Z,29.40
2018-07-22T06:03:28.397Z,29.80
2018-07-22T06:05:56.912Z,28.70
2018-07-22T06:08:25.528Z,29.20
2018-07-22T06:10:54.136Z,30.10
2018-07-22T06:13:22.817Z,30.10
2018-07-22T06:15:51.652Z,32.50
2018-07-22T06:18:20.309Z,32.60
2018-07-22T06:20:49.344Z,31.90
2018-07-22T06:23:18.236Z,31.90
2018-07-22T06:28:16.030Z,32.70
2018-07-22T06:30:44.576Z,34.10
2018-07-22T06:33:13.146Z,34.00
2018-07-22T06:35:42.134Z,34.50
2018-07-22T06:38:10.811Z,33.90
2018-07-22T06:40:39.487Z,33.60
2018-07-22T06:43:08.197Z,34.30
2018-07-22T06:45:36.827Z,33.70
2018-07-22T06:48:05.453Z,35.40
2018-07-22T06:50:33.867Z,34.40
2018-07-22T06:53:02.483Z,34.00
2018-07-22T06:55:30.998Z,35.40
2018-07-22T06:57:59.834Z,37.00
2018-07-22T07:00:28.375Z,36.70
2018-07-22T07:02:57.094Z,36.50
2018-07-22T07:05:26.106Z,35.70
2018-07-22T07:07:54.716Z,35.10
2018-07-22T07:10:23.331Z,34.90
2018-07-22T07:12:51.941Z,35.60
2018-07-22T07:15:20.427Z,37.30
2018-07-22T07:17:48.997Z,38.50
2018-07-22T07:20:17.544Z,39.40
2018-07-22T07:22:46.067Z,36.80
2018-07-22T07:25:14.723Z,36.40
2018-07-22T07:27:43.437Z,36.60
2018-07-22T07:30:12.054Z,37.90
2018-07-22T07:32:40.470Z,39.00
2018-07-22T07:35:09.019Z,37.80
2018-07-22T07:37:37.574Z,36.60
2018-07-22T07:42:34.676Z,36.60
2018-07-22T07:45:03.345Z,38.60
2018-07-22T07:47:32.063Z,37.40
2018-07-22T07:52:28.873Z,36.60
2018-07-22T07:54:57.347Z,37.40
2018-07-22T07:57:25.963Z,37.70
2018-07-22T07:59:55.038Z,38.30
2018-07-22T08:02:25.212Z,39.00
2018-07-22T08:04:54.052Z,40.20
2018-07-22T08:07:22.845Z,39.60
2018-07-22T08:09:51.321Z,38.70
2018-07-22T08:12:19.940Z,38.30
2018-07-22T08:14:48.571Z,39.40
2018-07-22T08:17:17.052Z,40.70
2018-07-22T08:19:45.723Z,38.20
2018-07-22T08:22:14.480Z,37.80
2018-07-22T08:24:43.113Z,39.50
2018-07-22T08:27:11.628Z,38.50
2018-07-22T08:29:40.087Z,39.70
2018-07-22T08:32:08.759Z,38.40
2018-07-22T08:39:33.944Z,40.60
2018-07-22T08:42:02.601Z,39.50
2018-07-22T08:44:31.236Z,39.90
2018-07-22T08:46:59.813Z,39.80
2018-07-22T08:49:28.427Z,39.90
2018-07-22T08:51:57.068Z,39.60
2018-07-22T08:54:25.647Z,40.20
2018-07-22T08:56:54.255Z,39.60
2018-07-22T08:59:22.989Z,39.90
2018-07-22T09:01:51.611Z,40.80
2018-07-22T09:04:20.279Z,42.30
2018-07-22T09:06:49.055Z,38.60
2018-07-22T09:09:17.589Z,39.60
2018-07-22T09:14:14.702Z,39.90
2018-07-22T09:16:43.423Z,40.40
2018-07-22T09:19:12.154Z,40.30
2018-07-22T09:21:40.769Z,40.00
2018-07-22T09:24:09.286Z,40.10
2018-07-22T09:26:38.124Z,39.40
2018-07-22T09:29:06.736Z,40.10
2018-07-22T09:31:35.496Z,40.20
2018-07-22T09:34:04.067Z,41.40
2018-07-22T09:36:32.615Z,40.20
2018-07-22T09:39:01.498Z,39.50
2018-07-22T09:41:30.113Z,38.50
2018-07-22T09:43:58.646Z,38.10
2018-07-22T09:46:27.150Z,36.40
2018-07-22T09:48:55.821Z,36.60
2018-07-22T09:51:24.864Z,36.50
2018-07-22T09:53:53.480Z,35.60
2018-07-22T09:56:22.125Z,34.40
2018-07-22T09:58:50.840Z,34.20
2018-07-22T10:01:19.374Z,34.20
2018-07-22T10:03:48.001Z,33.70
2018-07-22T10:06:16.509Z,34.40
2018-07-22T10:08:45.003Z,32.70
2018-07-22T10:11:19.892Z,32.20
2018-07-22T10:13:48.484Z,32.80
2018-07-22T10:16:17.268Z,32.60
2018-07-22T10:18:45.764Z,32.40
2018-07-22T10:21:14.184Z,32.70
2018-07-22T10:23:42.692Z,32.60
2018-07-22T10:26:11.091Z,32.40
2018-07-22T10:28:39.795Z,31.60
2018-07-22T10:31:08.382Z,31.20
2018-07-22T10:33:36.979Z,31.00
2018-07-22T10:36:05.816Z,30.80
2018-07-22T10:38:34.320Z,30.80
2018-07-22T10:41:02.742Z,30.70
2018-07-22T10:43:31.206Z,30.50
2018-07-22T10:45:59.902Z,29.80
2018-07-22T10:48:28.400Z,30.10
2018-07-22T10:50:56.922Z,30.90
2018-07-22T10:53:25.633Z,30.60
2018-07-22T10:55:54.103Z,30.80
2018-07-22T10:58:22.643Z,31.10
2018-07-22T11:00:51.208Z,30.60
2018-07-22T11:03:19.705Z,30.20
2018-07-22T11:05:48.204Z,30.80
2018-07-22T11:08:16.763Z,30.10
2018-07-22T11:10:45.301Z,29.80
2018-07-22T11:13:13.864Z,30.30
2018-07-22T11:18:11.026Z,30.80
2018-07-22T11:20:39.534Z,29.60
2018-07-22T11:23:08.309Z,29.80
2018-07-22T11:25:36.852Z,29.50
2018-07-22T11:28:05.463Z,29.70
2018-07-22T11:30:34.075Z,29.30
2018-07-22T11:33:02.749Z,29.80
2018-07-22T11:35:31.213Z,30.30
2018-07-22T11:37:59.780Z,30.30
2018-07-22T11:40:28.417Z,30.50
2018-07-22T11:42:56.990Z,29.90
2018-07-22T11:45:25.522Z,30.10
2018-07-22T11:47:54.082Z,30.50
2018-07-22T11:50:22.741Z,30.30
2018-07-22T11:55:19.497Z,30.60
2018-07-22T11:57:48.032Z,30.50
2018-07-22T12:00:16.621Z,29.60
2018-07-22T12:02:45.116Z,29.90
2018-07-22T12:05:13.672Z,30.50
2018-07-22T12:07:42.283Z,30.90
2018-07-22T12:10:10.764Z,30.70
2018-07-22T12:12:39.559Z,30.40
2018-07-22T12:15:08.412Z,30.60
2018-07-22T12:17:36.957Z,30.50
2018-07-22T12:20:05.574Z,30.90
2018-07-22T12:22:34.012Z,31.20
2018-07-22T12:25:02.526Z,31.00
2018-07-22T12:27:30.965Z,31.30
2018-07-22T12:29:59.416Z,31.10
2018-07-22T12:32:27.902Z,31.10
2018-07-22T12:34:56.415Z,31.00
2018-07-22T12:39:53.090Z,31.30
2018-07-22T12:42:21.503Z,31.20
2018-07-22T12:44:50.076Z,31.70
2018-07-22T12:47:19.117Z,32.00
2018-07-22T12:49:47.700Z,31.20
2018-07-22T12:52:16.473Z,31.00
2018-07-22T12:54:44.924Z,30.80
2018-07-22T12:57:13.618Z,30.60
2018-07-22T12:59:42.325Z,30.70
2018-07-22T13:02:10.739Z,31.30
2018-07-22T13:04:39.203Z,30.90
2018-07-22T13:07:07.687Z,30.80
2018-07-22T13:09:36.163Z,31.30
2018-07-22T13:12:04.751Z,31.70
2018-07-22T13:14:33.288Z,31.70
2018-07-22T13:17:01.704Z,31.20
2018-07-22T13:19:30.140Z,31.30
2018-07-22T13:21:59.942Z,31.40
2018-07-22T13:24:28.484Z,31.00
2018-07-22T13:26:57.166Z,30.80
2018-07-22T13:29:25.791Z,31.10
2018-07-22T13:31:54.335Z,31.00
2018-07-22T13:34:22.939Z,31.50
2018-07-22T13:36:51.391Z,31.70
2018-07-22T13:39:19.877Z,31.60
2018-07-22T13:41:48.447Z,31.70
2018-07-22T13:44:17.180Z,31.50
2018-07-22T13:46:45.643Z,31.30
2018-07-22T13:49:15.171Z,31.00
2018-07-22T13:51:43.724Z,30.70
2018-07-22T13:54:12.459Z,30.50
2018-07-22T13:56:41.120Z,30.50
2018-07-22T13:59:12.908Z,30.80
2018-07-22T14:01:41.515Z,30.90
2018-07-22T14:04:10.065Z,30.50
2018-07-22T14:06:38.620Z,30.40
2018-07-22T14:09:09.524Z,30.70
2018-07-22T14:11:38.191Z,31.30
2018-07-22T14:14:07.159Z,31.50
2018-07-22T14:16:35.927Z,31.50
2018-07-22T14:19:04.505Z,31.50
2018-07-22T14:21:33.652Z,30.80
2018-07-22T14:24:02.220Z,31.10
2018-07-22T14:26:30.823Z,31.30
2018-07-22T14:28:59.447Z,31.20
2018-07-22T14:31:27.893Z,30.70
2018-07-22T14:33:56.363Z,30.40
2018-07-22T14:36:24.953Z,30.00
2018-07-22T14:38:53.540Z,30.00
2018-07-22T14:41:22.164Z,30.20
2018-07-22T14:43:50.951Z,30.60
2018-07-22T14:46:20.240Z,30.70
2018-07-22T14:48:49.038Z,30.70
2018-07-22T14:51:17.627Z,30.50
2018-07-22T14:53:46.171Z,30.30
2018-07-22T14:56:14.949Z,30.60
2018-07-22T14:58:43.542Z,30.40
2018-07-22T15:01:13.392Z,30.30
2018-07-22T15:03:42.738Z,30.00
2018-07-22T15:06:11.579Z,30.00
2018-07-22T15:08:40.514Z,30.20
2018-07-22T15:11:09.064Z,30.50
2018-07-22T15:13:37.892Z,30.30
2018-07-22T15:16:07.083Z,30.40
2018-07-22T15:18:36.011Z,30.20
2018-07-22T15:21:05.052Z,30.50
2018-07-22T15:23:33.980Z,30.30
2018-07-22T15:26:02.936Z,30.30
2018-07-22T15:28:31.566Z,30.00
2018-07-22T15:31:00.146Z,30.00
2018-07-22T15:33:28.683Z,30.10
2018-07-22T15:35:57.319Z,29.80
2018-07-22T15:38:26.034Z,30.00
2018-07-22T15:40:54.507Z,29.80
2018-07-22T15:43:23.047Z,29.60
2018-07-22T15:45:51.740Z,30.00
2018-07-22T15:48:22.226Z,29.90
2018-07-22T15:50:51.231Z,30.20
2018-07-22T15:53:19.847Z,30.10
2018-07-22T15:55:48.664Z,30.00
2018-07-22T15:58:17.304Z,29.60
2018-07-22T16:00:45.836Z,29.70
2018-07-22T16:03:14.269Z,29.60
2018-07-22T16:05:43.728Z,29.50
2018-07-22T16:08:12.360Z,29.30
2018-07-22T16:10:41.235Z,29.10
2018-07-22T16:13:09.731Z,29.20
2018-07-22T16:15:38.468Z,29.20
2018-07-22T16:18:07.181Z,29.10
2018-07-22T16:20:35.916Z,29.10
2018-07-22T16:25:32.652Z,28.90
2018-07-22T16:28:01.464Z,29.00
2018-07-22T16:30:30.126Z,28.80
2018-07-22T16:32:58.731Z,28.70
2018-07-22T16:35:27.208Z,28.90
2018-07-22T16:37:55.672Z,28.90
2018-07-22T16:45:20.856Z,29.10
2018-07-22T16:47:49.325Z,29.10
2018-07-22T16:50:17.876Z,29.20
2018-07-22T16:52:46.617Z,29.30
2018-07-22T16:55:15.207Z,29.20
2018-07-22T16:57:43.769Z,29.10
2018-07-22T17:00:12.387Z,29.00
2018-07-22T17:02:41.280Z,28.90
2018-07-22T17:05:09.885Z,29.20
2018-07-22T17:07:38.419Z,29.20
2018-07-22T17:10:07.247Z,28.90
2018-07-22T17:12:35.949Z,29.00
2018-07-22T17:15:04.844Z,29.10
2018-07-22T17:17:33.512Z,29.00
2018-07-22T17:20:02.209Z,28.90
2018-07-22T17:22:30.824Z,29.00
2018-07-22T17:24:59.250Z,28.90
2018-07-22T17:27:27.822Z,29.00
2018-07-22T17:29:56.452Z,28.80
2018-07-22T17:32:25.345Z,28.90
2018-07-22T17:34:54.040Z,29.00
2018-07-22T17:37:22.577Z,29.00
2018-07-22T17:39:51.232Z,28.90
2018-07-22T17:42:19.774Z,28.90
2018-07-22T17:44:48.479Z,28.90
2018-07-22T17:47:17.147Z,28.70
2018-07-22T17:49:45.635Z,28.60
2018-07-22T17:52:14.212Z,28.60
2018-07-22T17:54:42.765Z,28.60
2018-07-22T17:57:11.362Z,28.70
2018-07-22T17:59:40.138Z,28.70
2018-07-22T18:02:08.840Z,28.50
2018-07-22T18:04:37.489Z,28.50
2018-07-22T18:07:06.347Z,28.60
2018-07-22T18:09:35.070Z,28.50
2018-07-22T18:12:03.775Z,28.40
2018-07-22T18:14:32.496Z,28.20
2018-07-22T18:17:01.247Z,28.20
2018-07-22T18:19:29.747Z,28.30
2018-07-22T18:21:58.390Z,28.20
2018-07-22T18:24:26.913Z,28.20
2018-07-22T18:26:56.229Z,28.00
2018-07-22T18:29:24.742Z,27.80
2018-07-22T18:31:53.519Z,27.70
2018-07-22T18:34:21.995Z,27.60
2018-07-22T18:36:50.555Z,27.50
2018-07-22T18:39:19.134Z,27.40
2018-07-22T18:41:47.663Z,27.20
2018-07-22T18:44:16.436Z,27.20
2018-07-22T18:46:45.073Z,27.00
2018-07-22T18:49:13.688Z,26.90
2018-07-22T18:51:42.319Z,26.80
2018-07-22T18:54:10.944Z,26.80
2018-07-22T18:56:39.595Z,26.70
2018-07-22T18:59:08.230Z,26.60
2018-07-22T19:01:36.906Z,26.50
2018-07-22T19:04:05.582Z,26.30
2018-07-22T19:06:34.117Z,26.10
2018-07-22T19:09:02.931Z,26.10
2018-07-22T19:11:31.489Z,25.90
2018-07-22T19:13:59.983Z,25.80
2018-07-22T19:16:28.524Z,25.60
2018-07-22T19:18:57.116Z,25.60
2018-07-22T19:21:25.864Z,25.40
2018-07-22T19:23:54.299Z,25.40
2018-07-22T19:26:22.968Z,25.30
2018-07-22T19:28:53.240Z,25.10
2018-07-22T19:31:21.694Z,25.00
2018-07-22T19:33:50.267Z,24.90
2018-07-22T19:36:18.788Z,24.80
2018-07-22T19:38:47.453Z,24.70
2018-07-22T19:41:16.014Z,24.70
2018-07-22T19:43:44.496Z,24.60
2018-07-22T19:46:12.967Z,24.50
2018-07-22T19:48:42.021Z,24.40
2018-07-22T19:51:11.398Z,24.30
2018-07-22T19:53:41.044Z,24.20
2018-07-22T19:56:11.286Z,24.10
2018-07-22T19:58:42.723Z,24.00
2018-07-22T20:01:11.279Z,24.00
2018-07-22T20:03:39.932Z,23.80
2018-07-22T20:06:08.626Z,23.70
2018-07-22T20:08:37.283Z,23.70
2018-07-22T20:11:06.037Z,23.60
2018-07-22T20:13:34.714Z,23.50
2018-07-22T20:16:03.491Z,23.40
2018-07-22T20:18:32.126Z,23.40
2018-07-22T20:21:00.653Z,23.40
2018-07-22T20:23:29.297Z,23.30
2018-07-22T20:25:57.953Z,23.20
2018-07-22T20:28:26.594Z,23.20
2018-07-22T20:30:55.249Z,23.20
2018-07-22T20:33:23.879Z,23.10
2018-07-22T20:35:52.455Z,23.10
2018-07-22T20:38:21.051Z,23.00
2018-07-22T20:40:49.646Z,22.90
2018-07-22T20:43:18.344Z,22.90
2018-07-22T20:45:47.059Z,22.80
2018-07-22T20:48:15.834Z,22.80
2018-07-22T20:50:44.469Z,22.70
2018-07-22T20:53:13.108Z,22.70
2018-07-22T20:55:41.741Z,22.60
2018-07-22T20:58:10.376Z,22.50
2018-07-22T21:00:39.212Z,22.40
2018-07-22T21:03:07.868Z,22.30
2018-07-22T21:05:36.484Z,22.30
2018-07-22T21:10:33.475Z,22.20
2018-07-22T21:13:15.970Z,22.10
2018-07-22T21:15:44.585Z,22.10
2018-07-22T21:18:13.285Z,22.10
2018-07-22T21:20:42.278Z,22.00
2018-07-22T21:23:10.952Z,22.00
2018-07-22T21:25:39.629Z,21.90
2018-07-22T21:28:08.284Z,21.90
2018-07-22T21:30:36.920Z,21.90
2018-07-22T21:33:05.677Z,21.90
2018-07-22T21:35:34.351Z,21.80
2018-07-22T21:38:03.219Z,21.80
2018-07-22T21:40:31.822Z,21.70
2018-07-22T21:43:00.478Z,21.70
2018-07-22T21:45:29.173Z,21.70
2018-07-22T21:50:26.409Z,21.60
2018-07-22T21:52:55.119Z,21.50
2018-07-22T21:55:23.728Z,21.40
2018-07-22T21:57:52.370Z,21.30
2018-07-22T22:00:32.229Z,21.30
2018-07-22T22:03:03.582Z,21.20
2018-07-22T22:05:32.254Z,21.20
2018-07-22T22:08:00.933Z,21.10
2018-07-22T22:10:29.568Z,21.00
2018-07-22T22:12:58.299Z,21.00
2018-07-22T22:15:28.066Z,20.90
2018-07-22T22:17:58.795Z,20.90
2018-07-22T22:20:27.940Z,20.90
2018-07-22T22:22:57.126Z,20.80
2018-07-22T22:25:25.702Z,20.80
2018-07-22T22:27:54.431Z,20.70
2018-07-22T22:30:23.073Z,20.60
2018-07-22T22:32:51.768Z,20.50
2018-07-22T22:35:20.424Z,20.50
2018-07-22T22:37:49.061Z,20.30
2018-07-22T22:40:17.756Z,20.20
2018-07-22T22:42:47.314Z,20.10
2018-07-22T22:45:16.446Z,20.10
2018-07-22T22:47:45.122Z,20.10
2018-07-22T22:50:13.824Z,20.00
2018-07-22T22:52:42.693Z,19.90
2018-07-22T22:55:11.375Z,19.90
2018-07-22T22:57:42.184Z,19.80
2018-07-22T23:00:10.965Z,19.70
2018-07-22T23:02:39.635Z,19.70
2018-07-22T23:05:08.492Z,19.70
2018-07-22T23:07:37.126Z,19.60
2018-07-22T23:10:05.982Z,19.60
2018-07-22T23:12:34.658Z,19.60
2018-07-22T23:15:03.413Z,19.50
2018-07-22T23:17:32.088Z,19.50
2018-07-22T23:20:00.763Z,19.50
2018-07-22T23:22:29.381Z,19.50
2018-07-22T23:24:58.114Z,19.40
2018-07-22T23:27:26.693Z,19.40
2018-07-22T23:29:55.305Z,19.40
2018-07-22T23:32:23.961Z,19.30
2018-07-22T23:34:52.557Z,19.30
2018-07-22T23:37:21.272Z,19.30
2018-07-22T23:39:49.971Z,19.30
2018-07-22T23:42:18.583Z,19.20
2018-07-22T23:44:47.301Z,19.20
2018-07-22T23:47:15.955Z,19.10
2018-07-22T23:49:44.611Z,19.10
2018-07-22T23:52:16.245Z,19.00
2018-07-22T23:54:45.261Z,19.00
2018-07-22T23:57:13.959Z,18.90
2018-07-22T23:59:42.672Z,18.90
